Time;durP1;ratioP1;P1;durP2;ratioP2;P2;SDS_P1;SDS_P2;PMS_P1;PMS_P2;Temp;Humidity;BMP_temperature;BMP_pressure;BME280_temperature;BME280_humidity;BME280_pressure;Samples;Min_cycle;Max_cycle;Signal;HPM_P1;HPM_P2
2022/09/27 00:00:36;;;;;;;7.18;4.22;;;;;;;15.34;66.74;98571.00;7605134;32;40027;-73
2022/09/27 00:04:54;;;;;;;10.13;4.80;;;;;;;15.11;67.56;98566.94;7605022;32;38593;-72
2022/09/27 00:09:10;;;;;;;11.30;4.60;;;;;;;15.15;67.40;98568.72;7605009;32;38132;-75
2022/09/27 00:13:26;;;;;;;9.18;5.10;;;;;;;15.17;67.27;98566.44;7604910;32;40322;-74
2022/09/27 00:17:42;;;;;;;9.18;5.37;;;;;;;15.21;67.47;98556.41;7604795;32;40034;-74
2022/09/27 00:22:00;;;;;;;147.48;10.82;;;;;;;15.06;67.99;98546.00;7580430;32;37895;-73
2022/09/27 00:26:16;;;;;;;8.50;4.95;;;;;;;14.85;69.18;98554.19;7578671;33;38275;-73
2022/09/27 00:30:32;;;;;;;12.10;5.22;;;;;;;15.06;67.95;98553.44;7578613;33;40175;-73
2022/09/27 00:34:48;;;;;;;14.20;5.15;;;;;;;15.01;68.76;98549.75;7578434;33;40018;-73
2022/09/27 00:39:04;;;;;;;10.07;5.05;;;;;;;15.28;67.67;98539.41;7577996;33;38747;-74
2022/09/27 00:43:22;;;;;;;11.07;5.82;;;;;;;14.94;68.95;98541.22;7578374;33;38198;-74
2022/09/27 00:47:59;;;;;;;13.45;6.05;;;;;;;15.06;68.87;98536.97;7578310;33;38265;-74
2022/09/27 00:52:28;;;;;;;11.98;5.60;;;;;;;15.21;68.41;98528.13;7613147;32;39595;-74
2022/09/27 00:56:45;;;;;;;12.43;5.85;;;;;;;15.02;69.17;98515.69;7605573;32;37948;-73
2022/09/27 01:01:05;;;;;;;10.25;5.85;;;;;;;15.35;68.25;98506.72;7607559;32;37315;-74
2022/09/27 01:05:23;;;;;;;14.52;6.50;;;;;;;15.32;67.97;98517.59;7618295;32;39484;-72
2022/09/27 01:09:39;;;;;;;13.32;5.72;;;;;;;14.81;69.87;98523.06;7607466;32;38907;-73
2022/09/27 01:14:17;;;;;;;10.20;6.22;;;;;;;15.09;68.89;98504.19;7618311;32;38053;-73
2022/09/27 01:18:34;;;;;;;8.68;5.85;;;;;;;15.13;69.00;98501.56;7605973;32;37251;-73
2022/09/27 01:23:03;;;;;;;8.55;5.53;;;;;;;15.19;68.48;98498.31;7605849;32;39522;-73
2022/09/27 01:27:28;;;;;;;11.20;5.50;;;;;;;15.06;68.81;98504.03;7617433;32;39977;-74
2022/09/27 01:32:02;;;;;;;9.32;5.90;;;;;;;15.27;68.10;98482.09;7607035;32;38617;-73
2022/09/27 01:36:30;;;;;;;16.35;5.75;;;;;;;15.09;68.55;98476.72;7607041;32;37083;-74
2022/09/27 01:41:04;;;;;;;9.98;5.60;;;;;;;15.18;68.11;98479.41;7606956;32;40167;-74
2022/09/27 01:45:47;;;;;;;9.43;5.22;;;;;;;15.06;68.60;98466.41;7605517;32;40102;-74
2022/09/27 01:50:47;;;;;;;10.48;5.15;;;;;;;15.03;68.74;98462.37;7616220;32;38667;-74
2022/09/27 01:55:06;;;;;;;10.20;5.85;;;;;;;15.17;68.23;98453.87;7606813;32;37301;-73
2022/09/27 01:59:30;;;;;;;11.70;5.60;;;;;;;15.06;68.52;98449.16;7617703;32;40201;-73
2022/09/27 02:03:50;;;;;;;17.05;6.25;;;;;;;15.25;67.62;98445.94;7606794;32;39879;-74
2022/09/27 02:08:13;;;;;;;11.35;6.47;;;;;;;15.32;67.20;98436.00;7617372;32;38486;-74
2022/09/27 02:12:38;;;;;;;14.90;9.15;;;;;;;15.06;67.95;98430.75;7598808;32;37432;-73
2022/09/27 02:16:59;;;;;;;16.85;10.23;;;;;;;15.18;67.40;98427.25;7580700;33;40054;-73
2022/09/27 02:21:17;;;;;;;15.18;9.68;;;;;;;14.98;68.04;98428.84;7591405;32;40132;-74
2022/09/27 02:25:54;;;;;;;15.20;8.60;;;;;;;15.14;67.33;98434.53;7591346;32;37962;-73
2022/09/27 02:30:12;;;;;;;13.88;8.05;;;;;;;15.09;66.99;98426.50;7591662;32;37827;-73
2022/09/27 02:34:32;;;;;;;23.38;9.02;;;;;;;14.87;67.58;98430.37;7591419;32;38338;-73
2022/09/27 02:38:48;;;;;;;28.98;9.48;;;;;;;14.87;67.74;98433.94;7595381;32;39634;-74
2022/09/27 02:43:04;;;;;;;18.75;10.38;;;;;;;15.22;66.72;98430.94;7606327;32;37706;-73
2022/09/27 02:47:32;;;;;;;17.42;9.20;;;;;;;15.17;66.98;98433.88;7617334;32;37158;-74
2022/09/27 02:52:15;;;;;;;16.02;8.60;;;;;;;14.81;68.04;98427.03;7606201;32;40195;-73
2022/09/27 02:56:48;;;;;;;17.77;9.23;;;;;;;14.76;67.85;98421.75;7606173;32;39603;-74
2022/09/27 03:01:14;;;;;;;21.50;10.75;;;;;;;14.88;67.12;98426.50;7604770;32;38510;-74
2022/09/27 03:05:37;;;;;;;25.33;13.75;;;;;;;14.69;67.37;98422.25;7606150;32;37980;-74
2022/09/27 03:09:54;;;;;;;20.75;13.07;;;;;;;14.80;67.23;98423.50;7595430;32;40231;-73
2022/09/27 03:14:10;;;;;;;22.17;13.68;;;;;;;14.66;67.87;98409.22;7579980;32;39735;-74
2022/09/27 03:18:26;;;;;;;22.48;12.15;;;;;;;14.38;68.98;98404.19;7579079;33;38588;-74
2022/09/27 03:22:42;;;;;;;22.05;11.48;;;;;;;14.65;67.79;98396.66;7579927;33;37228;-74
2022/09/27 03:26:58;;;;;;;18.25;12.05;;;;;;;14.59;67.34;98396.03;7579936;33;39360;-73
2022/09/27 03:31:14;;;;;;;19.95;12.18;;;;;;;14.49;67.52;98388.16;7579782;33;40840;-73
2022/09/27 03:35:30;;;;;;;24.83;13.02;;;;;;;14.39;67.48;98385.81;7593554;32;38862;-73
2022/09/27 03:39:46;;;;;;;31.70;14.52;;;;;;;14.49;67.14;98390.09;7605255;32;37430;-73
2022/09/27 03:44:03;;;;;;;25.60;14.32;;;;;;;14.18;68.22;98405.75;7605492;32;40060;-74
2022/09/27 03:48:19;;;;;;;25.88;15.68;;;;;;;14.18;69.13;98399.47;7605314;32;40738;-74
2022/09/27 03:52:42;;;;;;;23.97;14.93;;;;;;;14.27;69.32;98392.78;7605352;32;37640;-73
2022/09/27 03:56:58;;;;;;;27.50;16.42;;;;;;;14.14;70.42;98387.53;7605155;32;37887;-73
2022/09/27 04:01:14;;;;;;;31.65;17.48;;;;;;;14.59;68.95;98385.06;7605149;32;39488;-73
2022/09/27 04:05:31;;;;;;;30.77;16.60;;;;;;;14.46;69.73;98397.84;7591605;32;39964;-73
2022/09/27 04:09:47;;;;;;;34.97;17.37;;;;;;;14.44;69.89;98380.13;7579040;33;38751;-73
2022/09/27 04:14:04;;;;;;;30.83;17.60;;;;;;;14.67;69.44;98371.63;7578962;33;37384;-73
2022/09/27 04:18:20;;;;;;;30.42;17.67;;;;;;;14.42;70.79;98371.44;7578660;33;40219;-73
2022/09/27 04:22:40;;;;;;;36.70;18.73;;;;;;;14.74;69.35;98369.16;7578695;33;40170;-72
2022/09/27 04:26:56;;;;;;;28.60;16.70;;;;;;;14.74;69.38;98374.62;7578624;33;38869;-74
2022/09/27 04:31:12;;;;;;;29.15;16.80;;;;;;;14.92;68.84;98367.88;7586475;32;37162;-74
2022/09/27 04:40:04;;;;;;;63.75;19.02;;;;;;;14.88;69.09;98372.44;7600408;32;227652;-73
2022/09/27 04:44:20;;;;;;;50.15;18.05;;;;;;;14.73;69.46;98364.78;7555988;33;37751;-73
2022/09/27 04:48:36;;;;;;;34.45;18.37;;;;;;;14.57;70.17;98368.13;7556033;33;37918;-73
2022/09/27 04:52:53;;;;;;;35.08;18.27;;;;;;;14.70;69.96;98370.97;7556058;33;39169;-74
2022/09/27 04:57:11;;;;;;;30.62;17.67;;;;;;;14.57;70.44;98356.34;7555776;33;40076;-73
2022/09/27 05:01:27;;;;;;;41.35;19.02;;;;;;;14.45;70.87;98351.56;7569107;32;38724;-72
2022/09/27 05:05:43;;;;;;;38.92;19.02;;;;;;;14.92;69.39;98359.66;7607451;32;38220;-73
2022/09/27 05:09:59;;;;;;;41.67;20.30;;;;;;;14.77;69.76;98357.53;7607203;32;40052;-73
2022/09/27 05:14:15;;;;;;;34.30;20.33;;;;;;;14.96;69.52;98363.31;7581536;32;38359;-73
2022/09/27 05:18:32;;;;;;;34.75;20.48;;;;;;;14.81;70.15;98362.00;7581170;33;37966;-73
2022/09/27 05:22:48;;;;;;;47.53;21.12;;;;;;;14.79;70.29;98347.81;7581321;33;37329;-73
2022/09/27 05:27:07;;;;;;;56.88;19.83;;;;;;;14.76;70.90;98339.44;7583731;32;39908;-74
2022/09/27 05:31:25;;;;;;;47.30;19.55;;;;;;;14.92;69.86;98328.66;7581176;33;40870;-73
2022/09/27 05:35:46;;;;;;;65.95;19.33;;;;;;;14.76;70.11;98331.22;7581034;33;38282;-73
2022/09/27 05:40:02;;;;;;;37.08;19.12;;;;;;;14.90;70.16;98330.94;7600618;32;37920;-73
2022/09/27 05:44:38;;;;;;;35.90;19.27;;;;;;;14.56;71.17;98336.34;7593237;32;40623;-76
2022/09/27 05:48:54;;;;;;;46.67;20.70;;;;;;;14.88;70.07;98345.00;7589494;32;39934;-74
2022/09/27 05:53:12;;;;;;;41.83;21.95;;;;;;;14.83;70.68;98326.81;7580526;33;37936;-74
2022/09/27 05:57:28;;;;;;;39.45;20.00;;;;;;;14.82;70.95;98324.41;7576317;33;36991;-73
2022/09/27 06:01:44;;;;;;;54.28;19.83;;;;;;;14.94;70.82;98321.72;7579864;33;39157;-74
2022/09/27 06:06:06;;;;;;;33.45;17.77;;;;;;;14.80;71.70;98315.72;7580276;33;40943;-75
2022/09/27 06:10:22;;;;;;;43.75;18.23;;;;;;;14.48;72.02;98318.00;7589633;32;37903;-75
2022/09/27 06:14:39;;;;;;;28.38;15.50;;;;;;;14.59;71.58;98307.47;7581173;32;37947;-78
2022/09/27 06:18:55;;;;;;;35.35;15.07;;;;;;;14.98;70.62;98294.37;7605681;32;38455;-74
2022/09/27 06:23:14;;;;;;;30.23;15.45;;;;;;;14.95;70.29;98312.34;7606286;32;39621;-74
2022/09/27 06:27:31;;;;;;;30.45;15.90;;;;;;;14.72;71.08;98322.06;7605362;32;37083;-73
2022/09/27 06:31:47;;;;;;;43.80;19.87;;;;;;;15.08;69.78;98315.13;7605980;32;37322;-74
2022/09/27 06:36:05;;;;;;;35.28;17.50;;;;;;;14.52;71.66;98326.38;7586043;32;39253;-74
2022/09/27 06:40:25;;;;;;;34.22;17.25;;;;;;;14.92;70.03;98325.91;7591078;32;39620;-73
2022/09/27 06:44:43;;;;;;;48.30;18.08;;;;;;;15.02;69.50;98320.84;7601947;32;38889;-74
2022/09/27 06:49:05;;;;;;;32.77;16.97;;;;;;;14.82;70.22;98338.13;7581833;32;37981;-75
2022/09/27 06:53:22;;;;;;;32.40;18.30;;;;;;;14.83;70.71;98326.81;7590241;32;39975;-74
2022/09/27 07:02:12;;;;;;;31.73;17.08;;;;;;;15.13;69.73;98323.16;7580008;33;38649;-74
2022/09/27 07:06:30;;;;;;;27.75;16.75;;;;;;;15.24;70.12;98323.53;7591152;32;37900;-74
2022/09/27 07:10:46;;;;;;;35.10;19.05;;;;;;;15.61;68.59;98318.13;7580042;33;39821;-74
2022/09/27 07:15:02;;;;;;;31.60;18.05;;;;;;;15.36;69.14;98324.34;7581876;32;40910;-73
2022/09/27 07:19:18;;;;;;;30.40;17.15;;;;;;;15.54;69.70;98311.25;7576335;33;38644;-73
2022/09/27 07:23:36;;;;;;;27.58;17.45;;;;;;;15.40;68.97;98303.34;7576645;33;36903;-74
2022/09/27 07:27:52;;;;;;;32.75;16.75;;;;;;;15.49;67.87;98302.44;7588399;32;39176;-73
2022/09/27 07:32:08;;;;;;;27.23;16.98;;;;;;;15.52;68.45;98323.69;7582785;32;39758;-73
2022/09/27 07:36:24;;;;;;;30.40;16.73;;;;;;;15.55;68.53;98325.78;7584278;32;38638;-74
2022/09/27 07:40:40;;;;;;;27.40;15.63;;;;;;;15.88;67.80;98331.22;7591974;32;37075;-74
2022/09/27 07:44:58;;;;;;;26.17;15.70;;;;;;;15.46;68.19;98336.06;7605471;32;39435;-74
2022/09/27 07:49:14;;;;;;;25.20;15.10;;;;;;;15.46;68.41;98336.84;7605532;32;40693;-74
2022/09/27 07:53:30;;;;;;;24.58;16.02;;;;;;;15.96;67.13;98329.53;7605217;32;38680;-73
2022/09/27 07:57:46;;;;;;;30.83;17.95;;;;;;;15.85;66.86;98322.88;7589494;32;37277;-75
2022/09/27 08:02:02;;;;;;;27.58;16.33;;;;;;;16.01;67.01;98334.78;7595690;32;40133;-75
2022/09/27 08:06:19;;;;;;;25.17;15.68;;;;;;;15.85;68.28;98329.19;7585875;32;39539;-73
2022/09/27 08:10:35;;;;;;;25.70;13.60;;;;;;;16.07;67.19;98314.16;7600403;32;37927;-78
2022/09/27 08:14:52;;;;;;;20.37;13.23;;;;;;;16.64;68.17;98295.06;7578968;32;37848;-77
2022/09/27 08:19:08;;;;;;;25.65;16.02;;;;;;;16.81;67.04;98292.00;7589689;32;39662;-74
2022/09/27 08:23:24;;;;;;;29.45;16.12;;;;;;;16.80;65.39;98293.19;7596574;32;40811;-75
2022/09/27 08:27:40;;;;;;;27.08;15.93;;;;;;;17.13;64.74;98286.63;7582425;32;38638;-76
2022/09/27 08:31:56;;;;;;;29.17;16.08;;;;;;;17.05;64.44;98279.34;7581558;32;37213;-75
2022/09/27 08:36:13;;;;;;;24.42;14.48;;;;;;;16.87;64.66;98278.84;7586600;32;40069;-74
2022/09/27 08:40:58;;;;;;;25.35;15.25;;;;;;;17.47;63.44;98292.63;7590803;32;40890;-71
2022/09/27 08:45:28;;;;;;;22.25;14.70;;;;;;;17.60;63.59;98288.63;7565618;33;37748;-74
2022/09/27 08:50:19;;;;;;;22.87;15.25;;;;;;;17.72;62.49;98290.50;7587960;32;37320;-75
2022/09/27 08:54:36;;;;;;;22.87;14.35;;;;;;;17.83;61.31;98296.28;7578057;33;39491;-77
2022/09/27 08:59:09;;;;;;;22.27;13.52;;;;;;;17.93;62.16;98284.75;7591633;32;39958;-78
2022/09/27 09:03:30;;;;;;;24.25;13.85;;;;;;;18.07;61.90;98287.03;7578442;32;38018;-75
2022/09/27 09:07:58;;;;;;;20.45;11.95;;;;;;;17.93;61.73;98282.00;7591315;32;37603;-74
2022/09/27 09:12:46;;;;;;;21.60;13.38;;;;;;;18.05;61.05;98277.53;7603420;32;39053;-74
2022/09/27 09:17:05;;;;;;;21.35;13.27;;;;;;;18.17;61.62;98280.97;7604424;32;40065;-74
2022/09/27 09:21:46;;;;;;;21.95;14.00;;;;;;;18.29;62.26;98265.47;7607016;32;39100;-74
2022/09/27 09:26:29;;;;;;;21.98;13.82;;;;;;;18.27;60.64;98257.56;7582432;32;37250;-75
2022/09/27 09:31:19;;;;;;;23.52;14.50;;;;;;;18.08;61.57;98265.81;7582792;32;37861;-75
2022/09/27 09:35:47;;;;;;;20.65;13.75;;;;;;;18.26;60.53;98244.12;7590839;32;39634;-76
2022/09/27 09:40:26;;;;;;;20.80;13.00;;;;;;;18.65;60.28;98233.91;7581095;33;38807;-76
2022/09/27 09:44:53;;;;;;;18.27;12.80;;;;;;;18.36;61.06;98233.31;7581062;33;37983;-75
2022/09/27 09:49:27;;;;;;;17.58;12.05;;;;;;;18.32;60.62;98235.22;7555360;33;40186;-75
2022/09/27 09:53:43;;;;;;;18.62;11.77;;;;;;;18.10;60.67;98241.41;7579418;32;40697;-73
2022/09/27 09:58:05;;;;;;;20.20;13.02;;;;;;;17.82;61.90;98236.81;7605874;32;37813;-73
2022/09/27 10:02:32;;;;;;;18.58;13.07;;;;;;;17.58;63.36;98237.81;7617039;32;38362;-73
2022/09/27 10:06:49;;;;;;;19.15;12.18;;;;;;;17.93;62.54;98212.28;7580793;33;40139;-73
2022/09/27 10:11:13;;;;;;;19.87;12.98;;;;;;;18.01;62.43;98217.59;7591705;32;39941;-73
2022/09/27 10:15:30;;;;;;;18.92;12.10;;;;;;;17.63;63.72;98221.81;7595621;32;38014;-73
2022/09/27 10:19:47;;;;;;;21.30;12.60;;;;;;;17.54;63.91;98209.34;7594661;32;37909;-73
2022/09/27 10:24:13;;;;;;;19.23;12.98;;;;;;;17.74;63.04;98202.75;7606866;32;39816;-73
2022/09/27 10:28:37;;;;;;;18.45;12.18;;;;;;;17.77;62.74;98209.53;7580168;32;40773;-73
2022/09/27 10:32:59;;;;;;;19.08;12.23;;;;;;;17.65;63.26;98211.22;7584663;32;37921;-73
2022/09/27 10:37:16;;;;;;;17.55;11.82;;;;;;;17.61;62.67;98204.84;7606191;32;37926;-73
2022/09/27 10:41:37;;;;;;;17.73;11.38;;;;;;;17.69;61.95;98210.50;7606222;32;40187;-73
2022/09/27 10:46:08;;;;;;;15.02;10.55;;;;;;;17.77;62.05;98188.28;7606278;32;40971;-74
2022/09/27 10:50:27;;;;;;;18.70;11.80;;;;;;;18.00;62.51;98187.63;7606034;32;38740;-73
2022/09/27 10:55:23;;;;;;;16.67;11.35;;;;;;;18.13;61.75;98182.78;7605948;32;37802;-73
2022/09/27 10:59:42;;;;;;;18.58;12.32;;;;;;;18.13;61.68;98185.56;7615803;32;39180;-73
2022/09/27 11:03:59;;;;;;;18.23;11.20;;;;;;;17.94;61.80;98189.06;7617015;32;39951;-73
2022/09/27 11:08:18;;;;;;;17.48;10.75;;;;;;;18.00;60.77;98174.63;7616911;32;38758;-73
2022/09/27 11:12:35;;;;;;;17.60;10.45;;;;;;;17.32;62.84;98177.75;7605983;32;37916;-73
2022/09/27 11:16:54;;;;;;;17.25;11.60;;;;;;;17.78;61.27;98169.75;7605891;32;40095;-73
2022/09/27 11:21:44;;;;;;;18.40;10.77;;;;;;;17.92;60.05;98159.09;7605890;32;40733;-73
2022/09/27 11:26:43;;;;;;;16.87;11.27;;;;;;;17.83;61.10;98162.03;7605735;32;38634;-73
2022/09/27 11:31:20;;;;;;;17.25;10.80;;;;;;;17.51;62.51;98155.00;7590661;32;37850;-74
2022/09/27 11:35:58;;;;;;;15.30;9.88;;;;;;;18.05;62.01;98147.94;7615662;32;40210;-74
2022/09/27 11:40:53;;;;;;;15.77;10.00;;;;;;;18.42;60.68;98139.22;7604867;32;40558;-74
2022/09/27 11:45:30;;;;;;;16.15;9.30;;;;;;;18.44;61.11;98129.44;7589548;32;38714;-73
2022/09/27 11:50:17;;;;;;;17.17;9.73;;;;;;;18.68;59.86;98120.03;7613774;32;37370;-73
2022/09/27 11:54:42;;;;;;;14.13;8.80;;;;;;;18.36;60.91;98122.97;7616611;32;39441;-73
2022/09/27 11:59:11;;;;;;;18.45;9.70;;;;;;;18.78;59.95;98121.38;7605356;32;39765;-73
2022/09/27 12:03:53;;;;;;;15.57;9.52;;;;;;;18.99;59.02;98115.47;7605358;32;38029;-74
2022/09/27 12:08:37;;;;;;;15.13;9.50;;;;;;;18.50;60.95;98105.09;7614558;32;37064;-73
2022/09/27 12:12:55;;;;;;;17.73;10.43;;;;;;;18.18;61.83;98097.81;7604945;32;40005;-74
2022/09/27 12:17:26;;;;;;;15.70;9.73;;;;;;;18.63;60.81;98098.25;7615708;32;40821;-73
2022/09/27 12:21:42;;;;;;;16.45;10.27;;;;;;;18.76;60.38;98094.16;7615419;32;39223;-73
2022/09/27 12:26:03;;;;;;;17.58;10.70;;;;;;;18.95;59.88;98081.47;7615641;32;37381;-73
2022/09/27 12:30:19;;;;;;;17.12;10.80;;;;;;;18.81;59.98;98092.25;7604510;32;39349;-73
2022/09/27 12:34:55;;;;;;;16.30;10.45;;;;;;;18.60;59.99;98085.19;7604268;32;39993;-73
2022/09/27 12:39:27;;;;;;;16.02;9.98;;;;;;;18.65;60.04;98079.34;7603805;32;37903;-73
2022/09/27 12:43:47;;;;;;;18.13;10.77;;;;;;;18.89;59.91;98078.22;7613830;32;37874;-73
2022/09/27 12:48:16;;;;;;;18.37;10.85;;;;;;;18.60;60.84;98076.91;7604144;32;39402;-73
2022/09/27 12:52:38;;;;;;;18.45;11.55;;;;;;;18.72;61.48;98070.41;7605629;32;39982;-73
2022/09/27 12:57:14;;;;;;;19.90;11.25;;;;;;;18.48;61.45;98057.78;7618052;32;38219;-74
2022/09/27 13:01:45;;;;;;;18.10;11.10;;;;;;;18.33;62.20;98057.50;7591912;32;37266;-73
2022/09/27 13:06:50;;;;;;;17.92;11.35;;;;;;;18.34;61.55;98059.09;7618462;32;40037;-73
2022/09/27 13:11:15;;;;;;;17.77;11.25;;;;;;;18.39;61.70;98042.25;7583582;32;38553;-73
2022/09/27 13:15:34;;;;;;;16.73;10.32;;;;;;;18.70;60.58;98037.66;7618125;32;38011;-73
2022/09/27 13:19:50;;;;;;;19.42;10.82;;;;;;;18.49;61.29;98032.56;7607295;32;37198;-73
2022/09/27 13:24:31;;;;;;;16.10;10.75;;;;;;;18.27;62.59;98025.88;7607256;32;40048;-73
2022/09/27 13:28:47;;;;;;;19.10;11.18;;;;;;;18.36;62.74;98034.69;7617702;32;40823;-73
2022/09/27 13:33:09;;;;;;;16.75;10.35;;;;;;;18.45;61.87;98030.91;7606919;32;38100;-73
2022/09/27 13:37:43;;;;;;;17.95;10.93;;;;;;;18.34;62.51;98026.00;7606987;32;38049;-73
2022/09/27 13:42:29;;;;;;;10.52;3.00;;;;;;;17.97;63.67;98028.44;7583401;32;39011;-72
2022/09/27 13:46:52;;;;;;;4.90;1.85;;;;;;;15.73;65.70;98134.88;7589285;32;39959;-73
2022/09/27 13:51:35;;;;;;;3.25;1.73;;;;;;;14.95;68.53;98134.00;7590858;32;38641;-74
2022/09/27 13:55:52;;;;;;;3.53;1.48;;;;;;;15.29;67.23;98137.44;7580573;33;37423;-74
2022/09/27 14:00:23;;;;;;;3.53;1.48;;;;;;;14.68;69.12;98143.66;7580593;33;39505;-73
2022/09/27 14:04:48;;;;;;;1.73;1.33;;;;;;;14.90;69.21;98128.72;7580099;33;40586;-75
2022/09/27 14:09:13;;;;;;;4.32;2.03;;;;;;;15.36;67.82;98118.44;7580745;33;37930;-74
2022/09/27 14:13:31;;;;;;;4.07;2.05;;;;;;;15.39;67.66;98128.72;7580421;33;36880;-73
2022/09/27 14:17:47;;;;;;;7.32;2.03;;;;;;;14.45;70.89;98135.78;7591315;32;39362;-73
2022/09/27 14:22:03;;;;;;;3.80;1.80;;;;;;;14.40;71.76;98140.66;7580076;33;40067;-73
2022/09/27 14:26:25;;;;;;;2.75;1.60;;;;;;;14.08;73.93;98146.59;7580391;33;37840;-74
2022/09/27 14:30:42;;;;;;;3.78;1.25;;;;;;;14.32;73.53;98147.03;7591419;32;37655;-74
2022/09/27 14:35:05;;;;;;;1.55;1.20;;;;;;;13.89;72.46;98151.75;7579906;33;39412;-74
2022/09/27 14:39:24;;;;;;;;;;;;;;;14.16;72.01;98144.94;7580501;33;39866;-74
2022/09/27 14:43:45;;;;;;;1.33;1.17;;;;;;;14.09;70.63;98130.97;7580010;33;39220;-74
2022/09/27 14:48:16;;;;;;;1.30;1.20;;;;;;;14.68;71.00;98126.37;7591097;32;38997;-73
2022/09/27 14:52:34;;;;;;;1.23;0.90;;;;;;;14.67;71.03;98142.03;7580020;33;39419;-73
2022/09/27 14:56:51;;;;;;;1.00;0.95;;;;;;;14.82;69.76;98165.28;7580191;33;40191;-74
2022/09/27 15:01:17;;;;;;;3.00;0.88;;;;;;;14.73;69.45;98175.53;7579737;33;37968;-73
2022/09/27 15:05:34;;;;;;;2.75;1.00;;;;;;;15.04;65.40;98166.81;7590496;32;35957;-72
2022/09/27 15:09:50;;;;;;;1.73;1.15;;;;;;;14.76;66.86;98177.59;7590818;32;39247;-73
2022/09/27 15:14:12;;;;;;;2.60;1.20;;;;;;;14.79;66.76;98174.19;7578731;33;40037;-73
2022/09/27 15:18:38;;;;;;;3.17;1.27;;;;;;;15.10;67.29;98181.09;7579644;33;37925;-73
2022/09/27 15:22:56;;;;;;;1.98;1.33;;;;;;;15.15;65.60;98175.41;7579968;33;37243;-74
2022/09/27 15:27:17;;;;;;;2.33;1.58;;;;;;;14.43;67.69;98186.59;7578292;33;39128;-74
2022/09/27 15:31:35;;;;;;;2.60;1.40;;;;;;;14.82;66.05;98188.03;7579770;32;40653;-73
2022/09/27 15:36:02;;;;;;;2.30;1.37;;;;;;;14.95;64.59;98201.78;7590179;32;37923;-73
2022/09/27 15:40:19;;;;;;;2.53;1.67;;;;;;;14.02;67.58;98221.09;7589292;32;37139;-76
2022/09/27 15:44:45;;;;;;;6.65;3.00;;;;;;;13.77;68.80;98215.47;7579384;33;40506;-73
2022/09/27 15:49:36;;;;;;;4.05;2.12;;;;;;;13.86;68.09;98218.94;7579444;33;39982;-72
2022/09/27 15:53:52;;;;;;;3.25;1.62;;;;;;;14.57;65.26;98214.56;7578985;33;38667;-73
2022/09/27 15:58:19;;;;;;;3.40;1.92;;;;;;;14.77;65.25;98206.66;7578968;33;37697;-74
2022/09/27 16:02:35;;;;;;;2.58;1.85;;;;;;;14.54;65.81;98209.75;7589112;32;39404;-73
2022/09/27 16:06:53;;;;;;;6.10;2.42;;;;;;;14.76;65.42;98205.03;7589641;32;40818;-73
2022/09/27 16:11:14;;;;;;;5.18;2.78;;;;;;;14.56;65.33;98212.94;7589460;32;38124;-72
2022/09/27 16:15:31;;;;;;;9.52;3.10;;;;;;;14.46;65.41;98222.38;7588458;32;37083;-73
2022/09/27 16:19:49;;;;;;;4.85;2.08;;;;;;;14.61;65.77;98212.75;7578726;33;39418;-72
2022/09/27 16:24:05;;;;;;;7.40;3.30;;;;;;;14.05;66.64;98218.50;7578898;33;40032;-73
2022/09/27 16:28:21;;;;;;;7.00;3.05;;;;;;;13.88;67.69;98222.16;7581594;33;38276;-72
2022/09/27 16:32:45;;;;;;;4.97;2.50;;;;;;;14.06;67.09;98227.53;7582093;33;37100;-71
2022/09/27 16:37:01;;;;;;;4.40;2.22;;;;;;;14.09;67.06;98235.09;7582070;33;38429;-72
2022/09/27 16:41:21;;;;;;;5.20;2.03;;;;;;;14.00;67.04;98235.13;7581725;33;40006;-72
2022/09/27 16:45:37;;;;;;;5.20;2.40;;;;;;;13.73;67.62;98230.97;7581712;33;38100;-72
2022/09/27 16:54:28;;;;;;;6.97;2.55;;;;;;;14.28;66.34;98229.94;7581871;33;39451;-73
2022/09/27 16:58:44;;;;;;;6.82;3.67;;;;;;;14.17;66.25;98245.16;7581430;33;40042;-73
2022/09/27 17:03:03;;;;;;;7.32;3.65;;;;;;;14.16;66.31;98243.59;7581517;33;39403;-73
2022/09/27 17:07:19;;;;;;;7.80;4.18;;;;;;;14.23;66.37;98254.03;7581649;33;37215;-73
2022/09/27 17:11:36;;;;;;;11.80;4.75;;;;;;;14.13;66.44;98251.66;7581567;33;39206;-73
2022/09/27 17:15:53;;;;;;;9.52;5.70;;;;;;;14.26;66.23;98259.62;7581474;33;39732;-73
2022/09/27 17:20:11;;;;;;;10.38;5.18;;;;;;;14.47;65.43;98250.63;7581368;33;38559;-73
2022/09/27 17:24:27;;;;;;;11.63;5.93;;;;;;;14.36;65.73;98250.19;7581279;33;38016;-73
2022/09/27 17:28:44;;;;;;;10.35;5.22;;;;;;;14.13;66.51;98249.72;7581241;33;40109;-73
2022/09/27 17:33:00;;;;;;;13.05;7.00;;;;;;;13.96;67.44;98260.78;7581192;33;40738;-74
2022/09/27 17:37:16;;;;;;;11.07;5.72;;;;;;;13.76;68.41;98267.81;7580673;33;38539;-74
2022/09/27 17:41:33;;;;;;;11.00;4.47;;;;;;;14.19;67.03;98270.28;7581055;33;37913;-76
2022/09/27 17:45:54;;;;;;;7.00;3.40;;;;;;;13.73;68.63;98288.47;7591752;32;40135;-73
2022/09/27 17:50:32;;;;;;;7.15;3.67;;;;;;;13.81;68.49;98281.31;7581153;33;39987;-73
2022/09/27 17:54:47;;;;;;;11.70;3.95;;;;;;;14.08;67.68;98275.38;7581038;33;37944;-72
2022/09/27 17:59:04;;;;;;;8.30;3.70;;;;;;;13.98;67.79;98280.44;7580960;33;37127;-73
2022/09/27 18:03:20;;;;;;;6.35;3.97;;;;;;;14.05;67.52;98283.47;7583410;32;39363;-73
2022/09/27 18:07:36;;;;;;;8.93;4.53;;;;;;;13.66;67.93;98277.19;7600471;32;40771;-72
2022/09/27 18:11:52;;;;;;;7.30;4.40;;;;;;;13.65;68.35;98273.66;7597952;32;37855;-72
2022/09/27 18:16:13;;;;;;;8.27;4.62;;;;;;;13.79;67.86;98264.44;7580434;33;37420;-73
2022/09/27 18:20:33;;;;;;;9.85;4.80;;;;;;;14.04;67.24;98282.66;7585920;32;39267;-74
2022/09/27 18:24:49;;;;;;;7.03;4.37;;;;;;;14.14;66.73;98277.91;7606589;32;40751;-73
2022/09/27 18:29:14;;;;;;;8.30;4.05;;;;;;;13.97;67.10;98295.25;7597087;32;38775;-73
2022/09/27 18:33:31;;;;;;;7.47;3.67;;;;;;;14.14;66.74;98300.63;7593710;32;36243;-73
2022/09/27 18:37:48;;;;;;;6.62;3.75;;;;;;;14.22;66.63;98310.75;7584429;32;39355;-72
2022/09/27 18:42:04;;;;;;;7.12;4.12;;;;;;;14.15;67.23;98324.19;7578419;32;39921;-72
2022/09/27 18:46:20;;;;;;;7.97;3.90;;;;;;;14.16;67.18;98327.72;7579471;33;38074;-75
2022/09/27 18:50:52;;;;;;;10.15;4.30;;;;;;;14.04;67.72;98334.72;7579157;33;36976;-74
2022/09/27 18:55:08;;;;;;;10.90;4.78;;;;;;;14.09;67.39;98320.03;7580214;33;39908;-75
2022/09/27 18:59:25;;;;;;;10.52;4.55;;;;;;;14.30;67.45;98327.47;7581421;32;40038;-74
2022/09/27 19:03:42;;;;;;;7.68;4.07;;;;;;;14.27;67.40;98329.75;7579213;32;37625;-75
2022/09/27 19:07:58;;;;;;;7.72;3.83;;;;;;;14.36;67.41;98326.16;7580011;32;36891;-72
2022/09/27 19:12:15;;;;;;;7.65;3.90;;;;;;;14.37;67.43;98331.31;7599682;32;39212;-73
2022/09/27 19:16:32;;;;;;;6.53;3.17;;;;;;;14.17;68.45;98349.31;7605813;32;40840;-72
2022/09/27 19:20:48;;;;;;;8.02;3.37;;;;;;;14.26;68.19;98341.88;7595278;32;38106;-73
2022/09/27 19:25:05;;;;;;;7.10;3.60;;;;;;;14.49;67.28;98344.28;7590999;32;37024;-72
2022/09/27 19:29:21;;;;;;;12.15;4.43;;;;;;;14.27;67.94;98356.38;7580766;32;39376;-73
2022/09/27 19:33:38;;;;;;;6.75;4.28;;;;;;;14.27;67.62;98353.63;7600189;32;39885;-71
2022/09/27 19:37:54;;;;;;;9.35;4.72;;;;;;;14.11;68.43;98358.88;7605329;32;38547;-71
2022/09/27 19:42:10;;;;;;;9.00;5.12;;;;;;;14.39;67.66;98350.97;7586968;32;37908;-72
2022/09/27 19:46:26;;;;;;;8.52;4.07;;;;;;;14.12;68.60;98357.72;7579660;33;39134;-71
2022/09/27 19:50:42;;;;;;;8.32;4.40;;;;;;;13.87;69.15;98351.25;7588244;32;39725;-71
2022/09/27 19:55:00;;;;;;;8.55;4.03;;;;;;;13.76;69.93;98356.25;7605243;32;37741;-72
2022/09/27 19:59:23;;;;;;;8.77;4.37;;;;;;;13.82;69.60;98340.47;7604431;32;37027;-72
2022/09/27 20:03:41;;;;;;;8.07;4.32;;;;;;;13.97;69.17;98350.88;7579200;33;39408;-72
2022/09/27 20:07:57;;;;;;;7.65;4.10;;;;;;;14.07;68.84;98349.69;7601305;32;39928;-72
2022/09/27 20:12:13;;;;;;;8.27;4.43;;;;;;;13.52;70.97;98357.63;7586838;32;37875;-72
2022/09/27 20:16:31;;;;;;;7.75;4.57;;;;;;;13.91;69.70;98346.69;7579327;33;37034;-72
2022/09/27 20:20:47;;;;;;;7.90;4.62;;;;;;;13.60;71.00;98353.25;7590139;32;40157;-72
2022/09/27 20:25:04;;;;;;;8.40;4.68;;;;;;;13.93;69.56;98354.59;7604660;32;40755;-73
2022/09/27 20:29:20;;;;;;;10.70;4.78;;;;;;;14.19;68.43;98363.47;7601898;32;38630;-72